Time,TemperatureF,DewpointF,PressureIn,WindDirection,WindDirectionDegrees,WindSpeedMPH,WindSpeedGustMPH,Humidity,HourlyPrecipIn,Conditions,Clouds,dailyrainin,SoftwareType,DateUTC
2013-01-29 00:01:00,11.0,5.0,-100.00,West,264,27.0,36.0,76,0.00,,,-99.99,,2013-01-29 07:01:00,
2013-01-29 00:11:00,11.0,5.0,-100.00,West,263,26.0,37.0,76,0.00,,,-99.99,,2013-01-29 07:11:00,
2013-01-29 00:21:00,10.0,4.0,-100.00,West,264,29.0,38.0,76,0.00,,,-99.99,,2013-01-29 07:21:00,
2013-01-29 00:31:00,10.0,4.0,-100.00,West,261,27.0,37.0,76,0.00,,,-99.99,,2013-01-29 07:31:00,
2013-01-29 00:52:00,10.0,4.0,-100.00,WSW,258,28.0,37.0,74,0.00,,,-99.99,,2013-01-29 07:52:00,
2013-01-29 01:02:00,10.0,4.0,-100.00,WSW,256,26.0,36.0,73,0.00,,,-99.99,,2013-01-29 08:02:00,
2013-01-29 01:11:00,11.0,3.0,-100.00,WSW,256,28.0,36.0,72,0.00,,,-99.99,,2013-01-29 08:11:00,
2013-01-29 01:21:00,10.0,3.0,-100.00,West,261,27.0,37.0,72,0.00,,,-99.99,,2013-01-29 08:21:00,
2013-01-29 01:31:00,10.0,3.0,-100.00,West,261,27.0,39.0,72,0.00,,,-99.99,,2013-01-29 08:31:00,
2013-01-29 01:41:00,10.0,2.0,-100.00,West,263,28.0,36.0,70,0.00,,,-99.99,,2013-01-29 08:41:00,
2013-01-29 01:52:00,10.0,2.0,-100.00,West,265,28.0,38.0,71,0.00,,,-99.99,,2013-01-29 08:52:00,
2013-01-29 02:01:00,10.0,3.0,-100.00,West,261,27.0,40.0,72,0.00,,,-99.99,,2013-01-29 09:01:00,
2013-01-29 02:11:00,9.0,3.0,-100.00,West,263,24.0,35.0,74,0.00,,,-99.99,,2013-01-29 09:11:00,
2013-01-29 02:21:00,10.0,2.0,-100.00,WSW,254,24.0,35.0,71,0.00,,,-99.99,,2013-01-29 09:21:00,
2013-01-29 02:31:00,9.0,2.0,-100.00,WSW,251,26.0,36.0,72,0.00,,,-99.99,,2013-01-29 09:31:00,
2013-01-29 02:42:00,10.0,2.0,-100.00,WSW,250,27.0,38.0,71,0.00,,,-99.99,,2013-01-29 09:42:00,
2013-01-29 02:51:00,10.0,2.0,-100.00,WSW,251,24.0,38.0,70,0.00,,,-99.99,,2013-01-29 09:51:00,
2013-01-29 03:01:00,9.0,1.0,-100.00,WSW,251,26.0,34.0,68,0.00,,,-99.99,,2013-01-29 10:01:00,
2013-01-29 03:11:00,9.0,1.0,-100.00,WSW,248,24.0,34.0,69,0.00,,,-99.99,,2013-01-29 10:11:00,
2013-01-29 03:21:00,9.0,1.0,-100.00,WSW,257,23.0,32.0,69,0.00,,,-99.99,,2013-01-29 10:21:00,
2013-01-29 03:32:00,9.0,1.0,-100.00,West,263,21.0,28.0,70,0.00,,,-99.99,,2013-01-29 10:32:00,
2013-01-29 03:41:00,8.0,2.0,-100.00,West,267,23.0,32.0,75,0.00,,,-99.99,,2013-01-29 10:41:00,
2013-01-29 03:51:00,9.0,2.0,-100.00,West,263,25.0,36.0,75,0.00,,,-99.99,,2013-01-29 10:51:00,
2013-01-29 04:01:00,9.0,2.0,-100.00,WSW,258,27.0,41.0,73,0.00,,,-99.99,,2013-01-29 11:01:00,
2013-01-29 04:11:00,9.0,2.0,-100.00,WSW,258,29.0,41.0,73,0.00,,,-99.99,,2013-01-29 11:11:00,
2013-01-29 04:21:00,8.0,2.0,-100.00,WSW,251,27.0,36.0,74,0.00,,,-99.99,,2013-01-29 11:21:00,
2013-01-29 04:32:00,8.0,1.0,-100.00,WSW,256,24.0,35.0,73,0.00,,,-99.99,,2013-01-29 11:32:00,
2013-01-29 04:42:00,9.0,1.0,-100.00,WSW,258,26.0,33.0,71,0.00,,,-99.99,,2013-01-29 11:42:00,
2013-01-29 04:52:00,9.0,1.0,-100.00,West,260,23.0,30.0,71,0.00,,,-99.99,,2013-01-29 11:52:00,
2013-01-29 05:02:00,8.0,1.0,-100.00,WSW,258,21.0,29.0,71,0.00,,,-99.99,,2013-01-29 12:02:00,
2013-01-29 05:12:00,9.0,1.0,-100.00,WSW,254,22.0,31.0,69,0.00,,,-99.99,,2013-01-29 12:12:00,
2013-01-29 05:22:00,9.0,0.0,-100.00,WSW,254,22.0,32.0,67,0.00,,,-99.99,,2013-01-29 12:22:00,
2013-01-29 05:32:00,9.0,0.0,-100.00,WSW,254,21.0,30.0,67,0.00,,,-99.99,,2013-01-29 12:32:00,
2013-01-29 05:42:00,9.0,0.0,-100.00,WSW,253,21.0,29.0,67,0.00,,,-99.99,,2013-01-29 12:42:00,
2013-01-29 05:52:00,9.0,0.0,-100.00,WSW,256,21.0,29.0,66,0.00,,,-99.99,,2013-01-29 12:52:00,
2013-01-29 06:02:00,9.0,0.0,-100.00,WSW,257,21.0,29.0,68,0.00,,,-99.99,,2013-01-29 13:02:00,
2013-01-29 06:11:00,9.0,0.0,-100.00,WSW,256,21.0,30.0,67,0.00,,,-99.99,,2013-01-29 13:11:00,
2013-01-29 06:22:00,9.0,0.0,-100.00,WSW,250,22.0,30.0,66,0.00,,,-99.99,,2013-01-29 13:22:00,
2013-01-29 06:32:00,9.0,0.0,-100.00,WSW,248,21.0,28.0,66,0.00,,,-99.99,,2013-01-29 13:32:00,
2013-01-29 06:42:00,9.0,0.0,-100.00,WSW,248,22.0,28.0,67,0.00,,,-99.99,,2013-01-29 13:42:00,
2013-01-29 06:52:00,9.0,0.0,-100.00,WSW,248,22.0,30.0,67,0.00,,,-99.99,,2013-01-29 13:52:00,
2013-01-29 07:02:00,9.0,0.0,-100.00,WSW,250,21.0,29.0,68,0.00,,,-99.99,,2013-01-29 14:02:00,
2013-01-29 07:12:00,9.0,1.0,-100.00,WSW,250,22.0,32.0,69,0.00,,,-99.99,,2013-01-29 14:12:00,
2013-01-29 07:21:00,9.0,1.0,-100.00,WSW,250,24.0,32.0,68,0.00,,,-99.99,,2013-01-29 14:21:00,
2013-01-29 07:33:00,9.0,1.0,-100.00,WSW,248,23.0,32.0,69,0.00,,,-99.99,,2013-01-29 14:33:00,
2013-01-29 07:43:00,9.0,1.0,-100.00,WSW,247,22.0,34.0,69,0.00,,,-99.99,,2013-01-29 14:43:00,
2013-01-29 07:52:00,9.0,1.0,-100.00,WSW,247,23.0,33.0,69,0.00,,,-99.99,,2013-01-29 14:52:00,
2013-01-29 08:02:00,9.0,1.0,-100.00,WSW,246,21.0,32.0,71,0.00,,,-99.99,,2013-01-29 15:02:00,
2013-01-29 08:12:00,9.0,2.0,-100.00,WSW,246,21.0,33.0,70,0.00,,,-99.99,,2013-01-29 15:12:00,
2013-01-29 08:22:00,10.0,2.0,-100.00,WSW,248,21.0,29.0,70,0.00,,,-99.99,,2013-01-29 15:22:00,
2013-01-29 08:33:00,10.0,2.0,-100.00,WSW,250,23.0,30.0,70,0.00,,,-99.99,,2013-01-29 15:33:00,
2013-01-29 08:42:00,10.0,2.0,-100.00,WSW,250,21.0,30.0,70,0.00,,,-99.99,,2013-01-29 15:42:00,
2013-01-29 08:52:00,10.0,2.0,-100.00,WSW,250,20.0,28.0,71,0.00,,,-99.99,,2013-01-29 15:52:00,
2013-01-29 09:02:00,10.0,2.0,-100.00,WSW,248,20.0,29.0,69,0.00,,,-99.99,,2013-01-29 16:02:00,
2013-01-29 09:12:00,11.0,2.0,-100.00,WSW,248,19.0,26.0,69,0.00,,,-99.99,,2013-01-29 16:12:00,
2013-01-29 09:22:00,11.0,2.0,-100.00,WSW,246,22.0,30.0,67,0.00,,,-99.99,,2013-01-29 16:22:00,
2013-01-29 09:32:00,11.0,3.0,-100.00,WSW,250,19.0,28.0,67,0.00,,,-99.99,,2013-01-29 16:32:00,
2013-01-29 09:42:00,12.0,3.0,-100.00,WSW,250,19.0,28.0,67,0.00,,,-99.99,,2013-01-29 16:42:00,
2013-01-29 09:52:00,12.0,4.0,-100.00,WSW,251,17.0,25.0,68,0.00,,,-99.99,,2013-01-29 16:52:00,
2013-01-29 10:03:00,12.0,4.0,-100.00,WSW,251,19.0,26.0,70,0.00,,,-99.99,,2013-01-29 17:03:00,
2013-01-29 10:12:00,12.0,3.0,-100.00,WSW,251,20.0,27.0,68,0.00,,,-99.99,,2013-01-29 17:12:00,
2013-01-29 10:22:00,12.0,4.0,-100.00,WSW,248,21.0,30.0,68,0.00,,,-99.99,,2013-01-29 17:22:00,
2013-01-29 10:32:00,13.0,5.0,-100.00,WSW,250,18.0,30.0,68,0.00,,,-99.99,,2013-01-29 17:32:00,
2013-01-29 10:42:00,13.0,4.0,-100.00,WSW,250,18.0,27.0,66,0.00,,,-99.99,,2013-01-29 17:42:00,
2013-01-29 10:52:00,14.0,4.0,-100.00,WSW,254,16.0,23.0,64,0.00,,,-99.99,,2013-01-29 17:52:00,
2013-01-29 11:03:00,14.0,4.0,-100.00,West,261,16.0,24.0,64,0.00,,,-99.99,,2013-01-29 18:03:00,
2013-01-29 11:12:00,14.0,5.0,-100.00,West,265,16.0,21.0,66,0.00,,,-99.99,,2013-01-29 18:12:00,
2013-01-29 11:22:00,14.0,4.0,-100.00,West,271,17.0,22.0,64,0.00,,,-99.99,,2013-01-29 18:22:00,
2013-01-29 11:33:00,14.0,4.0,-100.00,West,267,17.0,26.0,64,0.00,,,-99.99,,2013-01-29 18:33:00,
2013-01-29 11:42:00,15.0,5.0,-100.00,West,271,15.0,21.0,65,0.00,,,-99.99,,2013-01-29 18:42:00,
2013-01-29 11:51:00,14.0,3.0,-100.00,West,274,17.0,24.0,60,0.00,,,-99.99,,2013-01-29 18:51:00,
2013-01-29 12:02:00,15.0,3.0,-100.00,West,274,16.0,25.0,60,0.00,,,-99.99,,2013-01-29 19:02:00,
2013-01-29 12:12:00,15.0,5.0,-100.00,West,268,17.0,25.0,64,0.00,,,-99.99,,2013-01-29 19:12:00,
2013-01-29 12:22:00,15.0,3.0,-100.00,West,268,17.0,24.0,60,0.00,,,-99.99,,2013-01-29 19:22:00,
2013-01-29 12:32:00,15.0,4.0,-100.00,West,268,16.0,22.0,62,0.00,,,-99.99,,2013-01-29 19:32:00,
2013-01-29 12:42:00,15.0,4.0,-100.00,West,265,16.0,21.0,61,0.00,,,-99.99,,2013-01-29 19:42:00,
2013-01-29 12:52:00,15.0,4.0,-100.00,West,271,15.0,22.0,61,0.00,,,-99.99,,2013-01-29 19:52:00,
2013-01-29 13:02:00,15.0,3.0,-100.00,West,265,14.0,21.0,58,0.00,,,-99.99,,2013-01-29 20:02:00,
2013-01-29 13:12:00,16.0,4.0,-100.00,West,261,15.0,23.0,59,0.00,,,-99.99,,2013-01-29 20:12:00,
2013-01-29 13:22:00,15.0,4.0,-100.00,West,270,15.0,20.0,59,0.00,,,-99.99,,2013-01-29 20:22:00,
2013-01-29 13:33:00,15.0,3.0,-100.00,West,272,15.0,20.0,58,0.00,,,-99.99,,2013-01-29 20:33:00,
2013-01-29 13:42:00,15.0,4.0,-100.00,West,265,16.0,21.0,61,0.00,,,-99.99,,2013-01-29 20:42:00,
2013-01-29 13:53:00,15.0,3.0,-100.00,WNW,282,14.0,20.0,58,0.00,,,-99.99,,2013-01-29 20:53:00,
2013-01-29 14:03:00,15.0,3.0,-100.00,WNW,284,16.0,23.0,59,0.00,,,-99.99,,2013-01-29 21:03:00,
2013-01-29 14:12:00,15.0,3.0,-100.00,WNW,285,16.0,23.0,58,0.00,,,-99.99,,2013-01-29 21:12:00,
2013-01-29 14:22:00,15.0,4.0,-100.00,West,275,14.0,20.0,61,0.00,,,-99.99,,2013-01-29 21:22:00,
2013-01-29 14:33:00,15.0,5.0,-100.00,West,281,13.0,18.0,64,0.00,,,-99.99,,2013-01-29 21:33:00,
2013-01-29 14:42:00,15.0,4.0,-100.00,West,277,13.0,20.0,63,0.00,,,-99.99,,2013-01-29 21:42:00,
2013-01-29 14:52:00,14.0,4.0,-100.00,West,275,14.0,19.0,64,0.00,,,-99.99,,2013-01-29 21:52:00,
2013-01-29 15:02:00,14.0,3.0,-100.00,West,277,14.0,19.0,61,0.00,,,-99.99,,2013-01-29 22:02:00,
2013-01-29 15:12:00,14.0,5.0,-100.00,WNW,284,13.0,19.0,66,0.00,,,-99.99,,2013-01-29 22:12:00,
2013-01-29 15:22:00,14.0,2.0,-100.00,WNW,287,13.0,19.0,60,0.00,,,-99.99,,2013-01-29 22:22:00,
2013-01-29 15:33:00,13.0,2.0,-100.00,West,280,13.0,18.0,60,0.00,,,-99.99,,2013-01-29 22:33:00,
2013-01-29 15:42:00,13.0,4.0,-100.00,West,274,13.0,19.0,67,0.00,,,-99.99,,2013-01-29 22:42:00,
2013-01-29 15:52:00,12.0,6.0,-100.00,WNW,282,12.0,17.0,73,0.00,,,-99.99,,2013-01-29 22:52:00,
2013-01-29 16:02:00,12.0,7.0,-100.00,WNW,285,12.0,21.0,81,0.00,,,-99.99,,2013-01-29 23:02:00,
2013-01-29 16:12:00,12.0,8.0,-100.00,WNW,284,13.0,18.0,85,0.01,,,-99.99,,2013-01-29 23:12:00,
2013-01-29 16:22:00,12.0,9.0,-100.00,WNW,282,12.0,18.0,88,0.01,,,-99.99,,2013-01-29 23:22:00,
2013-01-29 16:32:00,11.0,9.0,-100.00,WNW,287,13.0,18.0,88,0.00,,,-99.99,,2013-01-29 23:32:00,
2013-01-29 16:42:00,11.0,7.0,-100.00,WNW,289,13.0,18.0,82,0.00,,,-99.99,,2013-01-29 23:42:00,
2013-01-29 16:52:00,11.0,6.0,-100.00,WNW,294,14.0,19.0,78,0.00,,,-99.99,,2013-01-29 23:52:00,
2013-01-29 17:02:00,11.0,7.0,-100.00,WNW,291,12.0,16.0,81,0.00,,,-99.99,,2013-01-30 00:02:00,
2013-01-29 17:12:00,11.0,6.0,-100.00,WNW,289,12.0,16.0,81,0.00,,,-99.99,,2013-01-30 00:12:00,
2013-01-29 17:22:00,11.0,6.0,-100.00,WNW,289,10.0,13.0,80,0.00,,,-99.99,,2013-01-30 00:22:00,
2013-01-29 17:32:00,11.0,6.0,-100.00,WNW,288,10.0,15.0,81,0.00,,,-99.99,,2013-01-30 00:32:00,
2013-01-29 17:52:00,10.0,5.0,-100.00,West,275,9.0,14.0,81,0.00,,,-99.99,,2013-01-30 00:52:00,
2013-01-29 18:02:00,10.0,6.0,-100.00,West,270,11.0,15.0,81,0.00,,,-99.99,,2013-01-30 01:02:00,
2013-01-29 18:11:00,10.0,6.0,-100.00,West,271,11.0,15.0,82,0.00,,,-99.99,,2013-01-30 01:11:00,
2013-01-29 18:22:00,10.0,5.0,-100.00,West,274,11.0,15.0,80,0.00,,,-99.99,,2013-01-30 01:22:00,
2013-01-29 18:32:00,10.0,5.0,-100.00,West,280,10.0,14.0,80,0.00,,,-99.99,,2013-01-30 01:32:00,
2013-01-29 18:42:00,10.0,5.0,-100.00,West,281,9.0,13.0,80,0.00,,,-99.99,,2013-01-30 01:42:00,
2013-01-29 18:52:00,9.0,4.0,-100.00,WNW,289,9.0,12.0,81,0.00,,,-99.99,,2013-01-30 01:52:00,
2013-01-29 19:02:00,9.0,4.0,-100.00,WNW,285,8.0,11.0,79,0.00,,,-99.99,,2013-01-30 02:02:00,
2013-01-29 19:12:00,10.0,4.0,-100.00,West,270,11.0,17.0,77,0.00,,,-99.99,,2013-01-30 02:12:00,
2013-01-29 19:22:00,10.0,4.0,-100.00,West,271,10.0,14.0,76,0.00,,,-99.99,,2013-01-30 02:22:00,
2013-01-29 19:33:00,10.0,4.0,-100.00,West,275,9.0,13.0,76,0.00,,,-99.99,,2013-01-30 02:33:00,
2013-01-29 19:42:00,11.0,5.0,-100.00,West,280,9.0,13.0,76,0.00,,,-99.99,,2013-01-30 02:42:00,
2013-01-29 19:52:00,11.0,5.0,-100.00,WNW,287,7.0,12.0,78,0.00,,,-99.99,,2013-01-30 02:52:00,
2013-01-29 20:03:00,11.0,6.0,-100.00,WNW,288,7.0,12.0,81,0.00,,,-99.99,,2013-01-30 03:03:00,
2013-01-29 20:11:00,11.0,7.0,-100.00,WNW,294,9.0,15.0,84,0.00,,,-99.99,,2013-01-30 03:11:00,
2013-01-29 20:22:00,10.0,8.0,-100.00,NW,308,11.0,16.0,89,0.00,,,-99.99,,2013-01-30 03:22:00,
2013-01-29 20:32:00,10.0,8.0,-100.00,NW,304,10.0,14.0,91,0.00,,,-99.99,,2013-01-30 03:32:00,
2013-01-29 20:51:00,9.0,8.0,-100.00,WNW,296,6.0,10.0,91,0.00,,,-99.99,,2013-01-30 03:51:00,
2013-01-29 21:02:00,9.0,8.0,-100.00,WNW,296,6.0,10.0,92,0.01,,,-99.99,,2013-01-30 04:02:00,
2013-01-29 21:11:00,9.0,8.0,-100.00,WNW,298,7.0,10.0,92,0.00,,,-99.99,,2013-01-30 04:11:00,
2013-01-29 21:22:00,9.0,8.0,-100.00,WNW,294,6.0,9.0,93,0.06,,,-99.99,,2013-01-30 04:22:00,
2013-01-29 21:32:00,9.0,8.0,-100.00,WNW,299,6.0,9.0,94,0.11,,,-99.99,,2013-01-30 04:32:00,
2013-01-29 21:52:00,10.0,8.0,-100.00,WNW,299,7.0,9.0,94,0.01,,,-99.99,,2013-01-30 04:52:00,
2013-01-29 22:03:00,9.0,8.0,-100.00,WNW,292,11.0,15.0,93,0.01,,,-99.99,,2013-01-30 05:03:00,
2013-01-29 22:12:00,9.0,8.0,-100.00,WNW,291,12.0,17.0,93,0.01,,,-99.99,,2013-01-30 05:12:00,
2013-01-29 22:22:00,9.0,7.0,-100.00,WNW,288,13.0,19.0,92,0.00,,,-99.99,,2013-01-30 05:22:00,
2013-01-29 22:32:00,9.0,7.0,-100.00,WNW,289,11.0,17.0,92,0.00,,,-99.99,,2013-01-30 05:32:00,
2013-01-29 22:42:00,9.0,6.0,-100.00,WNW,288,14.0,19.0,89,0.00,,,-99.99,,2013-01-30 05:42:00,
2013-01-29 22:52:00,9.0,6.0,-100.00,WNW,284,12.0,16.0,88,0.00,,,-99.99,,2013-01-30 05:52:00,
2013-01-29 23:02:00,9.0,6.0,-100.00,WNW,289,15.0,21.0,89,0.00,,,-99.99,,2013-01-30 06:02:00,
2013-01-29 23:11:00,8.0,6.0,-100.00,WNW,292,15.0,21.0,90,0.00,,,-99.99,,2013-01-30 06:11:00,
2013-01-29 23:21:00,8.0,6.0,-100.00,WNW,294,13.0,18.0,92,0.00,,,-99.99,,2013-01-30 06:21:00,
2013-01-29 23:32:00,8.0,6.0,-100.00,WNW,295,12.0,17.0,92,0.00,,,-99.99,,2013-01-30 06:32:00,
2013-01-29 23:41:00,7.0,5.0,-100.00,WNW,298,14.0,21.0,93,0.00,,,-99.99,,2013-01-30 06:41:00,
2013-01-29 23:51:00,6.0,4.0,-100.00,WNW,295,14.0,19.0,92,0.00,,,-99.99,,2013-01-30 06:51:00,